Time;durP1;ratioP1;P1;durP2;ratioP2;P2;SDS_P1;SDS_P2;PMS_P1;PMS_P2;Temp;Humidity;BMP_temperature;BMP_pressure;BME280_temperature;BME280_humidity;BME280_pressure;Samples;Min_cycle;Max_cycle;Signal;HPM_P1;HPM_P2
2023/09/07 00:00:46;;;;;;;;;;;17.10;99.90;;;;;;5114225;28;19908;-64
2023/09/07 00:03:13;;;;;;;;;;;17.20;99.90;;;;;;5114411;28;20343;-65
2023/09/07 00:05:40;;;;;;;;;;;17.30;99.90;;;;;;5112570;28;19991;-65
2023/09/07 00:08:07;;;;;;;;;;;17.40;99.90;;;;;;5109155;28;20329;-68
2023/09/07 00:10:36;;;;;;;;;;;17.50;99.90;;;;;;5103040;28;20332;-65
2023/09/07 00:13:04;;;;;;;;;;;17.70;99.90;;;;;;5111007;28;20017;-65
2023/09/07 00:15:31;;;;;;;;;;;17.80;99.90;;;;;;5114239;28;19919;-66
2023/09/07 00:17:58;;;;;;;;;;;17.90;99.90;;;;;;5114260;28;19908;-66
2023/09/07 00:20:25;;;;;;;;;;;18.20;99.90;;;;;;5114221;28;19908;-65
2023/09/07 00:22:51;;;;;;;;;;;18.20;99.90;;;;;;5114228;28;19907;-66
2023/09/07 00:25:18;;;;;;;;;;;18.40;99.90;;;;;;5112886;28;19908;-68
2023/09/07 00:27:44;;;;;;;;;;;18.60;99.90;;;;;;5113522;28;19912;-66
2023/09/07 00:30:11;;;;;;;;;;;18.70;99.90;;;;;;5113641;28;19912;-66
2023/09/07 00:32:39;;;;;;;;;;;18.70;99.50;;;;;;5113952;28;20410;-66
2023/09/07 00:35:06;;;;;;;;;;;18.80;99.30;;;;;;5113495;28;19908;-67
2023/09/07 00:37:33;;;;;;;;;;;19.00;99.30;;;;;;5113429;28;19914;-68
2023/09/07 00:40:00;;;;;;;;;;;19.10;99.10;;;;;;5113273;28;19930;-66
2023/09/07 00:42:26;;;;;;;;;;;19.30;98.70;;;;;;5113699;28;19908;-66
2023/09/07 00:44:53;;;;;;;;;;;19.40;97.90;;;;;;5113656;28;19914;-66
2023/09/07 00:47:29;;;;;;;;;;;19.60;98.10;;;;;;5110209;27;19923;-66
2023/09/07 00:49:58;;;;;;;;;;;19.80;97.60;;;;;;5109485;28;19938;-63
2023/09/07 00:52:24;;;;;;;;;;;20.00;97.50;;;;;;5109949;28;19916;-67
2023/09/07 00:54:51;;;;;;;;;;;20.30;97.40;;;;;;5104414;28;19969;-66
2023/09/07 00:57:18;;;;;;;;;;;20.50;96.20;;;;;;5104013;28;19912;-66
2023/09/07 00:59:44;;;;;;;;;;;20.70;96.10;;;;;;5103594;28;19966;-65
2023/09/07 01:02:11;;;;;;;;;;;20.90;95.50;;;;;;5110097;28;19962;-64
2023/09/07 01:04:38;;;;;;;;;;;21.10;95.30;;;;;;5108497;28;19908;-67
2023/09/07 01:07:17;;;;;;;;;;;21.30;95.20;;;;;;5103725;28;19966;-67
2023/09/07 01:09:45;;;;;;;;;;;21.50;95.30;;;;;;5097110;28;19947;-66
2023/09/07 01:12:15;;;;;;;;;;;21.60;95.00;;;;;;5109757;28;20351;-68
2023/09/07 01:14:42;;;;;;;;;;;21.80;95.20;;;;;;5109618;28;19915;-67
2023/09/07 01:17:09;;;;;;;;;;;22.00;95.20;;;;;;5109221;28;20330;-67
2023/09/07 01:19:36;;;;;;;;;;;22.10;95.00;;;;;;5109195;28;19965;-67
2023/09/07 01:22:03;;;;;;;;;;;22.30;94.40;;;;;;5109421;28;19939;-66
2023/09/07 01:24:30;;;;;;;;;;;22.20;94.00;;;;;;5109620;28;19927;-66
2023/09/07 01:26:57;;;;;;;;;;;22.30;95.10;;;;;;5107978;28;19916;-66
2023/09/07 01:29:29;;;;;;;;;;;22.50;95.60;;;;;;5108697;28;19908;-67
2023/09/07 01:31:56;;;;;;;;;;;22.70;94.80;;;;;;5109139;28;19931;-66
2023/09/07 01:34:23;;;;;;;;;;;22.90;93.80;;;;;;5109492;28;19908;-66
2023/09/07 01:36:50;;;;;;;;;;;23.10;93.90;;;;;;5109489;28;19908;-66
2023/09/07 01:39:17;;;;;;;;;;;23.20;93.90;;;;;;5108956;28;20361;-68
2023/09/07 01:41:44;;;;;;;;;;;23.30;93.10;;;;;;5109493;28;19912;-67
2023/09/07 01:44:10;;;;;;;;;;;23.40;93.00;;;;;;5109166;28;20338;-67
2023/09/07 01:46:37;;;;;;;;;;;23.50;93.90;;;;;;5108712;28;20285;-66
2023/09/07 01:49:03;;;;;;;;;;;23.60;92.90;;;;;;5108686;28;19912;-67
2023/09/07 01:51:30;;;;;;;;;;;23.80;93.10;;;;;;5108437;28;19908;-67
2023/09/07 01:53:57;;;;;;;;;;;23.90;92.50;;;;;;5108718;28;19908;-69
2023/09/07 01:56:23;;;;;;;;;;;24.10;92.30;;;;;;5109046;28;20377;-66
2023/09/07 01:58:50;;;;;;;;;;;24.10;91.40;;;;;;5095167;28;19999;-66
2023/09/07 02:01:24;;;;;;;;;;;24.10;91.50;;;;;;5094909;28;20003;-66
2023/09/07 02:03:50;;;;;;;;;;;24.10;91.50;;;;;;5094854;28;19908;-66
2023/09/07 02:06:18;;;;;;;;;;;24.00;91.00;;;;;;5094799;28;20014;-65
2023/09/07 02:08:44;;;;;;;;;;;24.10;91.50;;;;;;5094442;28;19962;-65
2023/09/07 02:11:11;;;;;;;;;;;24.30;91.70;;;;;;5094641;28;19912;-66
2023/09/07 02:13:38;;;;;;;;;;;24.40;90.90;;;;;;5094085;28;20347;-65
2023/09/07 02:16:07;;;;;;;;;;;24.30;90.80;;;;;;5094941;28;19935;-67
2023/09/07 02:18:34;;;;;;;;;;;24.20;90.80;;;;;;5094832;28;19912;-67
2023/09/07 02:21:04;;;;;;;;;;;24.20;90.80;;;;;;5094115;28;20376;-68
2023/09/07 02:23:33;;;;;;;;;;;24.20;90.70;;;;;;5091974;28;19908;-67
2023/09/07 02:26:00;;;;;;;;;;;24.40;90.70;;;;;;5093676;28;20460;-68
2023/09/07 02:28:27;;;;;;;;;;;24.50;90.30;;;;;;5094482;28;19999;-65
2023/09/07 02:30:53;;;;;;;;;;;24.70;90.50;;;;;;5093849;28;19920;-66
2023/09/07 02:33:20;;;;;;;;;;;24.90;90.00;;;;;;5092085;28;19912;-66
2023/09/07 02:35:50;;;;;;;;;;;25.10;90.20;;;;;;5092526;28;19966;-67
2023/09/07 02:38:16;;;;;;;;;;;25.50;89.20;;;;;;5092719;28;20269;-70
2023/09/07 02:40:43;;;;;;;;;;;25.90;88.50;;;;;;5092603;28;20392;-67
2023/09/07 02:43:11;;;;;;;;;;;26.30;87.80;;;;;;5092309;28;19990;-68
2023/09/07 02:45:38;;;;;;;;;;;27.20;86.20;;;;;;5092323;28;19920;-67
2023/09/07 02:48:05;;;;;;;;;;;28.00;83.00;;;;;;5094377;28;19995;-69
2023/09/07 02:50:35;;;;;;;;;;;28.70;81.10;;;;;;5094412;28;19908;-69
2023/09/07 02:53:04;;;;;;;;;;;29.90;80.20;;;;;;5093862;28;19915;-70
2023/09/07 02:55:30;;;;;;;;;;;31.00;75.90;;;;;;5094194;28;19908;-67
2023/09/07 02:57:57;;;;;;;;;;;32.10;75.90;;;;;;5093904;28;19908;-68
2023/09/07 03:00:24;;;;;;;;;;;32.70;73.00;;;;;;5094184;28;19908;-65
2023/09/07 03:02:52;;;;;;;;;;;33.30;70.60;;;;;;5093910;28;19958;-65
2023/09/07 03:05:18;;;;;;;;;;;34.30;69.20;;;;;;5094073;28;19955;-66
2023/09/07 03:07:45;;;;;;;;;;;34.80;67.40;;;;;;5093841;28;20257;-66
2023/09/07 03:10:12;;;;;;;;;;;34.70;66.10;;;;;;5093166;28;20326;-69
2023/09/07 03:12:39;;;;;;;;;;;35.20;64.80;;;;;;5093327;28;20388;-68
2023/09/07 03:15:06;;;;;;;;;;;33.90;65.50;;;;;;5093771;28;19908;-66
2023/09/07 03:17:32;;;;;;;;;;;34.30;64.80;;;;;;5093383;28;19908;-66
2023/09/07 03:19:59;;;;;;;;;;;34.30;64.90;;;;;;5092325;28;20296;-67
2023/09/07 03:22:26;;;;;;;;;;;33.90;64.00;;;;;;5092524;28;19909;-67
2023/09/07 03:24:53;;;;;;;;;;;34.30;64.50;;;;;;5093844;28;19908;-67
2023/09/07 03:27:20;;;;;;;;;;;34.30;64.60;;;;;;5092738;28;20014;-66
2023/09/07 03:29:51;;;;;;;;;;;34.80;63.20;;;;;;5093933;28;19998;-66
2023/09/07 03:32:18;;;;;;;;;;;34.90;63.40;;;;;;5093557;28;19912;-68
2023/09/07 03:34:44;;;;;;;;;;;35.40;62.50;;;;;;5093046;28;19908;-67
2023/09/07 03:37:11;;;;;;;;;;;35.70;60.60;;;;;;5093343;28;19933;-67
2023/09/07 03:39:38;;;;;;;;;;;35.40;60.90;;;;;;5093250;28;19908;-67
2023/09/07 03:42:04;;;;;;;;;;;35.10;61.50;;;;;;5092964;28;19915;-68
2023/09/07 03:44:31;;;;;;;;;;;35.30;60.40;;;;;;5093062;28;19915;-67
2023/09/07 03:46:58;;;;;;;;;;;35.50;60.10;;;;;;5092905;28;20350;-67
2023/09/07 03:49:25;;;;;;;;;;;36.00;59.50;;;;;;5093343;28;19931;-68
2023/09/07 03:51:51;;;;;;;;;;;36.20;59.20;;;;;;5093151;28;20365;-67
2023/09/07 03:54:18;;;;;;;;;;;35.60;59.10;;;;;;5092880;28;19908;-68
2023/09/07 03:56:45;;;;;;;;;;;36.20;58.90;;;;;;5093199;28;20003;-67
2023/09/07 03:59:11;;;;;;;;;;;36.40;57.80;;;;;;5092948;28;19935;-68
2023/09/07 04:01:38;;;;;;;;;;;36.00;58.40;;;;;;5093017;28;19908;-70
2023/09/07 04:04:05;;;;;;;;;;;35.90;58.30;;;;;;5091135;28;20345;-67
2023/09/07 04:06:31;;;;;;;;;;;35.90;57.90;;;;;;5092703;28;20372;-67
2023/09/07 04:08:58;;;;;;;;;;;35.70;58.70;;;;;;5093359;28;19909;-67
2023/09/07 04:11:25;;;;;;;;;;;35.70;58.40;;;;;;5093150;28;20314;-68
2023/09/07 04:13:51;;;;;;;;;;;36.00;58.50;;;;;;5092703;28;19908;-69
2023/09/07 04:16:18;;;;;;;;;;;36.10;58.10;;;;;;5092805;28;19915;-68
2023/09/07 04:18:44;;;;;;;;;;;36.30;57.60;;;;;;5092721;28;19908;-68
2023/09/07 04:21:11;;;;;;;;;;;35.80;59.60;;;;;;5092402;28;19908;-68
2023/09/07 04:23:38;;;;;;;;;;;35.00;60.40;;;;;;5092296;28;19908;-68
2023/09/07 04:26:09;;;;;;;;;;;34.60;61.40;;;;;;5092599;28;19916;-67
2023/09/07 04:28:35;;;;;;;;;;;34.40;62.20;;;;;;5092552;28;19960;-68
2023/09/07 04:31:02;;;;;;;;;;;34.70;62.00;;;;;;5091291;28;20347;-68
2023/09/07 04:33:32;;;;;;;;;;;34.90;61.80;;;;;;5091636;28;19916;-67
2023/09/07 04:36:12;;;;;;;;;;;34.10;62.40;;;;;;5092362;28;19953;-68
2023/09/07 04:38:39;;;;;;;;;;;33.70;63.30;;;;;;5092449;28;19915;-68
2023/09/07 04:41:12;;;;;;;;;;;33.20;64.10;;;;;;5092806;28;19908;-68
2023/09/07 04:43:46;;;;;;;;;;;32.80;64.80;;;;;;5091743;28;19919;-67
2023/09/07 04:46:13;;;;;;;;;;;33.40;63.90;;;;;;5092165;28;19942;-66
2023/09/07 04:48:43;;;;;;;;;;;33.60;64.00;;;;;;5092561;28;20372;-67
2023/09/07 04:51:12;;;;;;;;;;;34.10;63.60;;;;;;5092279;28;19919;-67
2023/09/07 04:53:39;;;;;;;;;;;34.20;63.60;;;;;;5091815;28;20054;-67
2023/09/07 04:56:06;;;;;;;;;;;33.80;63.20;;;;;;5092178;28;19915;-66
2023/09/07 04:58:33;;;;;;;;;;;33.40;64.10;;;;;;5092346;28;19968;-68
2023/09/07 05:01:06;;;;;;;;;;;33.40;64.40;;;;;;5091123;28;20368;-67
2023/09/07 05:03:33;;;;;;;;;;;34.20;64.30;;;;;;5091837;28;19908;-68
2023/09/07 05:06:00;;;;;;;;;;;34.20;64.30;;;;;;5091651;28;20006;-68
2023/09/07 05:08:27;;;;;;;;;;;33.80;64.90;;;;;;5092211;28;19908;-66
2023/09/07 05:10:57;;;;;;;;;;;34.60;63.60;;;;;;5092497;28;19930;-68
2023/09/07 05:13:24;;;;;;;;;;;34.90;63.10;;;;;;5092345;28;19912;-69
2023/09/07 05:15:51;;;;;;;;;;;35.30;62.80;;;;;;5091668;28;19920;-68
2023/09/07 05:18:18;;;;;;;;;;;35.10;63.00;;;;;;5091842;28;19962;-68
2023/09/07 05:20:45;;;;;;;;;;;34.60;63.90;;;;;;5091475;28;19950;-70
2023/09/07 05:23:15;;;;;;;;;;;34.60;64.10;;;;;;5091022;28;19955;-67
2023/09/07 05:25:45;;;;;;;;;;;35.00;63.50;;;;;;5090810;28;20010;-68
2023/09/07 05:28:15;;;;;;;;;;;34.40;63.70;;;;;;5091484;28;19912;-67
2023/09/07 05:30:42;;;;;;;;;;;33.90;64.00;;;;;;5091647;28;20330;-67
2023/09/07 05:33:12;;;;;;;;;;;34.70;64.30;;;;;;5091418;28;19912;-67
2023/09/07 05:35:40;;;;;;;;;;;34.40;64.70;;;;;;5093892;28;20358;-68
2023/09/07 05:38:06;;;;;;;;;;;34.70;63.50;;;;;;5097022;28;20011;-69
2023/09/07 05:40:44;;;;;;;;;;;34.70;63.80;;;;;;5096583;28;19913;-69
2023/09/07 05:43:11;;;;;;;;;;;34.70;64.60;;;;;;5094361;28;20400;-67
2023/09/07 05:45:39;;;;;;;;;;;35.10;63.60;;;;;;5094440;28;20284;-67
2023/09/07 05:48:06;;;;;;;;;;;34.40;64.70;;;;;;5095091;28;19971;-67
2023/09/07 05:50:36;;;;;;;;;;;34.50;64.40;;;;;;5088218;28;19920;-67
2023/09/07 05:53:03;;;;;;;;;;;34.40;64.40;;;;;;5087059;28;19963;-71
2023/09/07 05:55:30;;;;;;;;;;;34.10;65.30;;;;;;5078181;28;19924;-67
2023/09/07 05:57:57;;;;;;;;;;;33.60;66.10;;;;;;5073911;28;19908;-68
2023/09/07 06:00:24;;;;;;;;;;;33.80;66.50;;;;;;5092036;28;19916;-67
2023/09/07 06:02:51;;;;;;;;;;;33.70;66.40;;;;;;5082254;28;20472;-68
2023/09/07 06:05:18;;;;;;;;;;;34.10;66.70;;;;;;5095039;28;19919;-68
2023/09/07 06:07:45;;;;;;;;;;;34.10;67.00;;;;;;5093784;28;19947;-68
2023/09/07 06:10:11;;;;;;;;;;;33.70;67.30;;;;;;5084681;28;19912;-68
2023/09/07 06:12:38;;;;;;;;;;;33.10;68.60;;;;;;5074782;28;20491;-68
2023/09/07 06:15:05;;;;;;;;;;;32.80;69.30;;;;;;5093323;28;19916;-70
2023/09/07 06:17:31;;;;;;;;;;;32.70;69.70;;;;;;5094455;28;19958;-68
2023/09/07 06:19:58;;;;;;;;;;;33.00;69.70;;;;;;5094675;28;20351;-69
2023/09/07 06:22:25;;;;;;;;;;;32.90;69.10;;;;;;5085378;28;19924;-69
2023/09/07 06:24:51;;;;;;;;;;;31.90;71.10;;;;;;5077581;28;19913;-68
2023/09/07 06:27:18;;;;;;;;;;;32.20;70.50;;;;;;5074291;28;19923;-68
2023/09/07 06:29:45;;;;;;;;;;;32.70;70.70;;;;;;5087535;28;19912;-69
2023/09/07 06:32:11;;;;;;;;;;;32.70;69.40;;;;;;5086852;28;19908;-67
2023/09/07 06:34:38;;;;;;;;;;;32.20;70.80;;;;;;5094192;28;19912;-68
2023/09/07 06:37:05;;;;;;;;;;;32.40;70.40;;;;;;5093884;28;19912;-67
2023/09/07 06:39:31;;;;;;;;;;;32.50;70.70;;;;;;5094442;28;20010;-68
2023/09/07 06:41:58;;;;;;;;;;;32.00;70.70;;;;;;5093408;28;20314;-69
2023/09/07 06:44:25;;;;;;;;;;;31.00;72.60;;;;;;5087149;28;19965;-70
2023/09/07 06:46:51;;;;;;;;;;;30.40;73.20;;;;;;5093762;28;19923;-69
2023/09/07 06:49:19;;;;;;;;;;;29.70;74.30;;;;;;5094351;28;20049;-67
2023/09/07 06:51:46;;;;;;;;;;;28.60;76.40;;;;;;5089466;28;20011;-67
2023/09/07 06:54:13;;;;;;;;;;;27.60;78.80;;;;;;5085340;28;19937;-68
2023/09/07 06:56:40;;;;;;;;;;;26.40;82.20;;;;;;5093633;28;19916;-67
2023/09/07 06:59:06;;;;;;;;;;;25.50;84.90;;;;;;5093941;28;19916;-67
2023/09/07 07:01:33;;;;;;;;;;;24.80;87.40;;;;;;5091031;28;19912;-67
2023/09/07 07:03:59;;;;;;;;;;;24.20;89.50;;;;;;5083191;28;19977;-68
2023/09/07 07:06:26;;;;;;;;;;;23.80;90.70;;;;;;5093447;28;19920;-66
2023/09/07 07:08:53;;;;;;;;;;;23.60;91.40;;;;;;5093591;28;19958;-67
2023/09/07 07:11:20;;;;;;;;;;;23.40;92.00;;;;;;5092913;28;19951;-67
2023/09/07 07:13:46;;;;;;;;;;;23.30;92.80;;;;;;5081309;28;19908;-67
2023/09/07 07:16:13;;;;;;;;;;;23.10;93.30;;;;;;5093537;28;19905;-68
2023/09/07 07:18:40;;;;;;;;;;;22.90;94.00;;;;;;5093294;28;19991;-68
2023/09/07 07:21:08;;;;;;;;;;;22.70;94.70;;;;;;5092909;28;20004;-67
2023/09/07 07:23:36;;;;;;;;;;;22.60;95.40;;;;;;5080500;28;19908;-67
2023/09/07 07:26:03;;;;;;;;;;;22.50;96.20;;;;;;5093345;28;19934;-68
2023/09/07 07:28:30;;;;;;;;;;;22.40;96.80;;;;;;5093426;28;19965;-67
2023/09/07 07:30:56;;;;;;;;;;;22.40;97.40;;;;;;5092627;28;19923;-69
2023/09/07 07:33:23;;;;;;;;;;;22.30;97.70;;;;;;5091078;28;19919;-67
2023/09/07 07:35:50;;;;;;;;;;;22.30;98.20;;;;;;5092995;28;19938;-69
2023/09/07 07:38:16;;;;;;;;;;;22.20;98.80;;;;;;5093135;28;19913;-68
2023/09/07 07:40:43;;;;;;;;;;;22.10;99.30;;;;;;5093301;28;19981;-68
2023/09/07 07:43:10;;;;;;;;;;;21.90;99.90;;;;;;5080381;28;20352;-69
2023/09/07 07:45:38;;;;;;;;;;;21.90;99.90;;;;;;5093025;28;19945;-69
2023/09/07 07:48:08;;;;;;;;;;;21.80;99.90;;;;;;5093159;28;19914;-68
2023/09/07 07:50:41;;;;;;;;;;;21.70;99.90;;;;;;5093241;28;20411;-68
2023/09/07 07:53:08;;;;;;;;;;;21.60;99.90;;;;;;5079822;28;19931;-69
2023/09/07 07:55:38;;;;;;;;;;;21.60;99.90;;;;;;5092459;28;19912;-69
2023/09/07 07:58:08;;;;;;;;;;;21.60;99.90;;;;;;5092734;28;19915;-70
2023/09/07 08:00:35;;;;;;;;;;;21.50;99.90;;;;;;5092846;28;19912;-68
2023/09/07 08:03:06;;;;;;;;;;;21.50;99.90;;;;;;5079537;28;20007;-68
2023/09/07 08:05:33;;;;;;;;;;;21.50;99.90;;;;;;5091010;28;19920;-69
2023/09/07 08:08:00;;;;;;;;;;;21.40;99.90;;;;;;5092104;28;20010;-69
2023/09/07 08:10:27;;;;;;;;;;;21.40;99.90;;;;;;5092093;28;20288;-69
2023/09/07 08:12:56;;;;;;;;;;;21.40;99.90;;;;;;5091105;28;19912;-65
2023/09/07 08:15:24;;;;;;;;;;;21.40;99.90;;;;;;5090699;28;19991;-68
2023/09/07 08:17:51;;;;;;;;;;;21.30;99.90;;;;;;5085650;28;19924;-68
2023/09/07 08:20:18;;;;;;;;;;;21.30;99.90;;;;;;5097134;28;19935;-67
2023/09/07 08:22:45;;;;;;;;;;;21.30;99.90;;;;;;5094767;28;19961;-69
2023/09/07 08:25:16;;;;;;;;;;;21.30;99.90;;;;;;5105624;28;19912;-67
2023/09/07 08:27:47;;;;;;;;;;;21.30;99.90;;;;;;5095764;28;19920;-67
2023/09/07 08:30:18;;;;;;;;;;;21.30;99.90;;;;;;5082611;28;20387;-66
2023/09/07 08:32:51;;;;;;;;;;;21.30;99.90;;;;;;5084473;28;20398;-68
2023/09/07 08:35:17;;;;;;;;;;;21.20;99.90;;;;;;5088648;28;20335;-67
2023/09/07 08:37:44;;;;;;;;;;;21.30;99.90;;;;;;5078867;28;19970;-67
2023/09/07 08:40:11;;;;;;;;;;;21.20;99.90;;;;;;5092036;28;20369;-68
2023/09/07 08:42:38;;;;;;;;;;;21.20;99.90;;;;;;5088145;28;19908;-69
2023/09/07 08:45:08;;;;;;;;;;;21.20;99.90;;;;;;5090599;28;19916;-69
2023/09/07 08:47:36;;;;;;;;;;;21.20;99.90;;;;;;5085442;28;19916;-68
2023/09/07 08:50:03;;;;;;;;;;;21.10;99.90;;;;;;5091376;28;19920;-67
2023/09/07 08:52:30;;;;;;;;;;;21.10;99.90;;;;;;5075609;28;19916;-66
2023/09/07 08:55:00;;;;;;;;;;;21.10;99.90;;;;;;5089235;28;19912;-68
2023/09/07 08:57:27;;;;;;;;;;;21.10;99.90;;;;;;5086310;28;19908;-68
2023/09/07 08:59:54;;;;;;;;;;;21.10;99.90;;;;;;5077276;28;20023;-67
2023/09/07 09:02:20;;;;;;;;;;;21.00;99.90;;;;;;5078772;28;20007;-69
2023/09/07 09:04:47;;;;;;;;;;;21.10;99.90;;;;;;5085102;28;20585;-66
2023/09/07 09:07:13;;;;;;;;;;;21.10;99.90;;;;;;5089281;28;19963;-67
2023/09/07 09:09:40;;;;;;;;;;;21.10;99.90;;;;;;5094384;28;19919;-67
2023/09/07 09:12:11;;;;;;;;;;;21.00;99.90;;;;;;5094221;28;19966;-68
2023/09/07 09:14:37;;;;;;;;;;;21.10;99.90;;;;;;5090687;28;19957;-68
2023/09/07 09:17:04;;;;;;;;;;;21.10;99.90;;;;;;5088947;28;20322;-68
2023/09/07 09:19:34;;;;;;;;;;;21.10;99.90;;;;;;5094313;28;19915;-67
2023/09/07 09:22:01;;;;;;;;;;;21.10;99.90;;;;;;5093458;28;19926;-70
2023/09/07 09:24:32;;;;;;;;;;;21.10;99.90;;;;;;5094326;28;19923;-67
2023/09/07 09:26:59;;;;;;;;;;;21.10;99.90;;;;;;5091793;28;19928;-66
2023/09/07 09:29:27;;;;;;;;;;;21.10;99.90;;;;;;5094097;28;19947;-68
2023/09/07 09:31:54;;;;;;;;;;;21.10;99.90;;;;;;5091243;28;19919;-68
2023/09/07 09:34:21;;;;;;;;;;;21.10;99.90;;;;;;5093591;28;19912;-67
2023/09/07 09:36:47;;;;;;;;;;;21.10;99.90;;;;;;5093830;28;20304;-68
2023/09/07 09:39:24;;;;;;;;;;;21.00;99.90;;;;;;5092627;28;19915;-68
2023/09/07 09:41:51;;;;;;;;;;;21.00;99.90;;;;;;5087515;28;19964;-67
2023/09/07 09:44:17;;;;;;;;;;;21.00;99.90;;;;;;5090804;28;19943;-68
2023/09/07 09:46:45;;;;;;;;;;;21.00;99.90;;;;;;5091880;28;19992;-68
2023/09/07 09:49:13;;;;;;;;;;;21.00;99.90;;;;;;5092513;28;19908;-68
2023/09/07 09:51:41;;;;;;;;;;;21.00;99.90;;;;;;5093020;28;19916;-69
2023/09/07 09:54:09;;;;;;;;;;;21.00;99.90;;;;;;5091324;28;19912;-67
2023/09/07 09:56:35;;;;;;;;;;;21.00;99.90;;;;;;5091146;28;19912;-67
2023/09/07 09:59:02;;;;;;;;;;;21.00;99.90;;;;;;5091918;28;19919;-69
2023/09/07 10:01:29;;;;;;;;;;;21.00;99.90;;;;;;5093332;28;20391;-68
2023/09/07 10:03:57;;;;;;;;;;;21.00;99.90;;;;;;5092738;28;20041;-68
2023/09/07 10:06:24;;;;;;;;;;;21.10;99.90;;;;;;5089197;28;20423;-68
2023/09/07 10:09:04;;;;;;;;;;;21.10;99.90;;;;;;5092973;28;20357;-68
2023/09/07 10:11:32;;;;;;;;;;;21.10;99.90;;;;;;5083164;28;19912;-70
2023/09/07 10:13:59;;;;;;;;;;;21.10;99.90;;;;;;5093137;28;20566;-66
2023/09/07 10:16:29;;;;;;;;;;;21.10;99.90;;;;;;5093420;28;19961;-67
2023/09/07 10:18:55;;;;;;;;;;;21.20;99.90;;;;;;5090475;28;20400;-69
2023/09/07 10:21:28;;;;;;;;;;;21.20;99.90;;;;;;5092093;28;19919;-66
2023/09/07 10:23:55;;;;;;;;;;;21.30;99.90;;;;;;5092601;28;20006;-67
2023/09/07 10:26:21;;;;;;;;;;;21.30;99.90;;;;;;5093193;28;19920;-67
2023/09/07 10:28:58;;;;;;;;;;;21.40;99.90;;;;;;5091217;28;19908;-67
2023/09/07 10:31:25;;;;;;;;;;;21.50;99.90;;;;;;5090909;28;20085;-66
2023/09/07 10:33:52;;;;;;;;;;;21.60;99.90;;;;;;5092744;28;19912;-69
2023/09/07 10:36:23;;;;;;;;;;;21.70;99.90;;;;;;5092964;28;19942;-68
2023/09/07 10:38:52;;;;;;;;;;;21.70;99.90;;;;;;5091230;28;19923;-66
2023/09/07 10:41:19;;;;;;;;;;;21.70;99.90;;;;;;5092612;28;19958;-66
2023/09/07 10:43:50;;;;;;;;;;;21.80;99.90;;;;;;5092389;28;19915;-66
2023/09/07 10:46:20;;;;;;;;;;;21.90;99.90;;;;;;5092615;28;20023;-68
2023/09/07 10:48:50;;;;;;;;;;;21.90;99.90;;;;;;5088051;28;20660;-67
2023/09/07 10:51:17;;;;;;;;;;;22.00;99.70;;;;;;5092162;28;20010;-65
2023/09/07 10:53:43;;;;;;;;;;;22.10;99.50;;;;;;5090808;28;20266;-67
2023/09/07 10:56:11;;;;;;;;;;;22.10;99.10;;;;;;5092412;28;19916;-67
2023/09/07 10:58:42;;;;;;;;;;;22.10;99.00;;;;;;5090793;28;20404;-67
2023/09/07 11:01:09;;;;;;;;;;;22.10;98.80;;;;;;5085026;28;19920;-66
2023/09/07 11:03:36;;;;;;;;;;;22.20;98.60;;;;;;5089527;28;19908;-67
2023/09/07 11:06:11;;;;;;;;;;;22.20;98.30;;;;;;5087262;28;19927;-67
2023/09/07 11:08:38;;;;;;;;;;;22.30;98.00;;;;;;5091007;28;19912;-67
2023/09/07 11:11:05;;;;;;;;;;;22.30;97.90;;;;;;5087193;28;19927;-70
2023/09/07 11:13:32;;;;;;;;;;;22.40;97.40;;;;;;5088097;28;20019;-67
2023/09/07 11:15:59;;;;;;;;;;;22.40;97.30;;;;;;5092102;28;19917;-68
2023/09/07 11:18:26;;;;;;;;;;;22.40;96.90;;;;;;5087959;28;19958;-68
2023/09/07 11:20:53;;;;;;;;;;;22.40;96.40;;;;;;5092158;28;19916;-71
2023/09/07 11:23:20;;;;;;;;;;;22.50;96.00;;;;;;5091965;28;19970;-66
2023/09/07 11:25:47;;;;;;;;;;;22.60;95.70;;;;;;5089947;28;19975;-72
2023/09/07 11:28:17;;;;;;;;;;;22.70;95.20;;;;;;5090502;28;19908;-67
2023/09/07 11:30:53;;;;;;;;;;;22.70;94.60;;;;;;5092124;28;20050;-67
2023/09/07 11:33:20;;;;;;;;;;;22.90;94.20;;;;;;5092887;28;19958;-67
2023/09/07 11:35:47;;;;;;;;;;;23.10;93.80;;;;;;5093256;28;19912;-67
2023/09/07 11:38:15;;;;;;;;;;;23.10;93.50;;;;;;5082695;28;19960;-67
2023/09/07 11:40:45;;;;;;;;;;;23.30;92.80;;;;;;5092646;28;20377;-68
2023/09/07 11:43:12;;;;;;;;;;;23.40;92.40;;;;;;5087253;28;20365;-72
2023/09/07 11:45:40;;;;;;;;;;;23.60;92.00;;;;;;5092598;28;20276;-68
2023/09/07 11:48:08;;;;;;;;;;;23.80;91.30;;;;;;5075956;28;19991;-67
2023/09/07 11:50:36;;;;;;;;;;;23.90;90.90;;;;;;5074328;28;19915;-67
2023/09/07 11:53:03;;;;;;;;;;;24.00;90.60;;;;;;5090708;28;20347;-66
2023/09/07 11:55:29;;;;;;;;;;;24.10;90.40;;;;;;5088988;28;19908;-69
2023/09/07 11:57:56;;;;;;;;;;;24.10;90.20;;;;;;5091804;28;20305;-66
2023/09/07 12:00:23;;;;;;;;;;;24.20;89.90;;;;;;5092736;28;19908;-66
2023/09/07 12:02:50;;;;;;;;;;;24.10;89.70;;;;;;5088712;28;19919;-66
2023/09/07 12:05:17;;;;;;;;;;;24.30;89.50;;;;;;5071893;28;19917;-66
2023/09/07 12:07:44;;;;;;;;;;;24.20;89.20;;;;;;5083004;28;20392;-66
2023/09/07 12:10:13;;;;;;;;;;;24.20;89.00;;;;;;5087953;28;19935;-66
2023/09/07 12:12:40;;;;;;;;;;;24.20;88.70;;;;;;5092116;28;19915;-67
2023/09/07 12:15:07;;;;;;;;;;;24.20;88.50;;;;;;5089900;28;19956;-67
2023/09/07 12:17:34;;;;;;;;;;;24.20;88.00;;;;;;5088205;28;20215;-66
2023/09/07 12:20:01;;;;;;;;;;;24.30;87.40;;;;;;5089147;28;19912;-67
2023/09/07 12:22:28;;;;;;;;;;;24.30;87.50;;;;;;5089835;28;19912;-67
2023/09/07 12:24:54;;;;;;;;;;;24.30;87.00;;;;;;5092703;28;19915;-70
2023/09/07 12:27:21;;;;;;;;;;;24.30;86.60;;;;;;5092752;28;19916;-68
2023/09/07 12:29:48;;;;;;;;;;;24.50;85.60;;;;;;5091996;28;19908;-68
2023/09/07 12:32:15;;;;;;;;;;;24.70;84.10;;;;;;5092245;28;20266;-67
2023/09/07 12:34:42;;;;;;;;;;;24.70;83.90;;;;;;5092267;28;19961;-67
2023/09/07 12:37:08;;;;;;;;;;;24.40;84.90;;;;;;5087504;28;19920;-66
2023/09/07 12:39:35;;;;;;;;;;;24.20;85.90;;;;;;5085113;28;19963;-67
2023/09/07 12:42:01;;;;;;;;;;;23.90;87.40;;;;;;5087068;28;20376;-69
2023/09/07 12:44:28;;;;;;;;;;;23.70;88.60;;;;;;5092407;28;19909;-67
2023/09/07 12:46:55;;;;;;;;;;;23.50;89.70;;;;;;5080714;28;20373;-66
2023/09/07 12:49:21;;;;;;;;;;;23.30;90.20;;;;;;5072223;28;19919;-70
2023/09/07 12:51:48;;;;;;;;;;;23.20;90.50;;;;;;5071956;28;19974;-68
2023/09/07 12:54:15;;;;;;;;;;;23.00;91.20;;;;;;5072254;28;19936;-65
2023/09/07 12:56:41;;;;;;;;;;;22.90;91.80;;;;;;5082899;28;19970;-67
2023/09/07 12:59:08;;;;;;;;;;;22.70;92.10;;;;;;5092071;28;19947;-68
2023/09/07 13:01:35;;;;;;;;;;;22.60;92.30;;;;;;5092330;28;20412;-70
2023/09/07 13:04:02;;;;;;;;;;;22.50;92.60;;;;;;5092149;28;19912;-68
2023/09/07 13:06:29;;;;;;;;;;;22.40;92.90;;;;;;5091854;28;19920;-67
2023/09/07 13:08:56;;;;;;;;;;;22.40;93.10;;;;;;5092025;28;19912;-68
2023/09/07 13:11:22;;;;;;;;;;;22.30;93.40;;;;;;5092173;28;20387;-66
2023/09/07 13:13:49;;;;;;;;;;;22.20;93.60;;;;;;5089766;28;19916;-69
2023/09/07 13:16:16;;;;;;;;;;;22.00;93.80;;;;;;5079533;28;19913;-66
2023/09/07 13:18:42;;;;;;;;;;;22.00;93.90;;;;;;5083461;28;20003;-70
2023/09/07 13:21:09;;;;;;;;;;;22.00;94.20;;;;;;5091715;28;19913;-67
2023/09/07 13:23:35;;;;;;;;;;;21.90;94.40;;;;;;5090338;28;19919;-66
2023/09/07 13:26:02;;;;;;;;;;;21.90;94.40;;;;;;5081359;28;19912;-67
2023/09/07 13:28:29;;;;;;;;;;;21.80;94.50;;;;;;5091853;28;19919;-67
2023/09/07 13:30:55;;;;;;;;;;;21.80;94.60;;;;;;5092485;28;19908;-67
2023/09/07 13:33:22;;;;;;;;;;;21.70;94.70;;;;;;5092559;28;19904;-66
2023/09/07 13:35:49;;;;;;;;;;;21.60;94.60;;;;;;5092477;28;19908;-68
2023/09/07 13:38:15;;;;;;;;;;;21.70;94.60;;;;;;5091407;28;20388;-66
2023/09/07 13:40:42;;;;;;;;;;;21.70;94.60;;;;;;5092343;28;19938;-68
2023/09/07 13:43:09;;;;;;;;;;;21.70;94.30;;;;;;5090773;28;20239;-66
2023/09/07 13:45:36;;;;;;;;;;;21.80;94.30;;;;;;5091574;28;19962;-67
2023/09/07 13:48:02;;;;;;;;;;;21.80;94.30;;;;;;5077686;28;20010;-66
2023/09/07 13:50:32;;;;;;;;;;;21.70;94.40;;;;;;5091281;28;19912;-67
2023/09/07 13:52:59;;;;;;;;;;;21.70;94.40;;;;;;5091255;28;20431;-67
2023/09/07 13:55:25;;;;;;;;;;;21.70;94.00;;;;;;5078948;28;19912;-67
2023/09/07 13:57:52;;;;;;;;;;;21.70;94.10;;;;;;5075298;28;19909;-67
2023/09/07 14:00:19;;;;;;;;;;;21.70;94.00;;;;;;5094214;28;19912;-68
2023/09/07 14:02:45;;;;;;;;;;;21.80;93.70;;;;;;5094935;28;19912;-67
2023/09/07 14:05:12;;;;;;;;;;;21.80;93.70;;;;;;5095087;28;19913;-67
2023/09/07 14:07:39;;;;;;;;;;;21.80;93.40;;;;;;5093420;28;19963;-66
2023/09/07 14:10:05;;;;;;;;;;;21.90;93.30;;;;;;5095013;28;19912;-67
2023/09/07 14:12:32;;;;;;;;;;;21.90;93.20;;;;;;5094880;28;19912;-67
2023/09/07 14:14:59;;;;;;;;;;;21.90;93.20;;;;;;5093373;28;19912;-64
2023/09/07 14:17:25;;;;;;;;;;;21.90;93.20;;;;;;5094480;28;19938;-65